Time;durP1;ratioP1;P1;durP2;ratioP2;P2;SDS_P1;SDS_P2;PMS_P1;PMS_P2;Temp;Humidity;BMP_temperature;BMP_pressure;BME280_temperature;BME280_humidity;BME280_pressure;Samples;Min_cycle;Max_cycle;Signal;HPM_P1;HPM_P2
2023/04/24 00:02:06;;;;;;;2.33;2.22;;;12.20;76.00;;;;;;5046048;28;20639;-74
2023/04/24 00:04:32;;;;;;;2.08;1.98;;;12.20;76.10;;;;;;5050478;28;20203;-74
2023/04/24 00:06:59;;;;;;;2.58;2.40;;;12.30;76.90;;;;;;5050379;28;20182;-74
2023/04/24 00:09:26;;;;;;;5.10;3.22;;;12.10;78.30;;;;;;5049018;28;20180;-75
2023/04/24 00:11:52;;;;;;;2.17;2.08;;;11.90;77.90;;;;;;5049552;28;20171;-73
2023/04/24 00:14:18;;;;;;;2.33;2.17;;;11.90;78.30;;;;;;5047756;28;20188;-73
2023/04/24 00:16:44;;;;;;;2.40;2.30;;;11.90;78.30;;;;;;5048721;28;20180;-73
2023/04/24 00:19:11;;;;;;;3.10;2.72;;;11.90;78.10;;;;;;5051711;28;20652;-74
2023/04/24 00:21:37;;;;;;;2.30;2.05;;;11.90;77.40;;;;;;5053544;28;20182;-74
2023/04/24 00:24:03;;;;;;;2.17;2.03;;;11.90;77.60;;;;;;5051879;28;20188;-72
2023/04/24 00:26:29;;;;;;;1.92;1.83;;;11.90;78.00;;;;;;5050133;28;20199;-73
2023/04/24 00:28:54;;;;;;;2.72;2.53;;;11.90;78.10;;;;;;5048549;28;20265;-73
2023/04/24 00:31:20;;;;;;;2.05;1.83;;;11.90;78.40;;;;;;5053335;28;20180;-73
2023/04/24 00:33:46;;;;;;;2.30;2.20;;;11.90;78.50;;;;;;5050042;28;20266;-73
2023/04/24 00:36:11;;;;;;;1.70;1.70;;;11.80;77.80;;;;;;5050205;28;20229;-73
2023/04/24 00:38:37;;;;;;;4.20;2.08;;;11.70;77.40;;;;;;5051847;28;20193;-73
2023/04/24 00:41:03;;;;;;;1.45;1.42;;;11.80;77.30;;;;;;5055188;28;20183;-72
2023/04/24 00:43:28;;;;;;;2.90;1.73;;;11.80;77.10;;;;;;5053835;28;20962;-73
2023/04/24 00:45:54;;;;;;;1.70;1.60;;;11.80;76.60;;;;;;5053139;28;20218;-73
2023/04/24 00:48:21;;;;;;;2.13;1.98;;;11.90;76.40;;;;;;5058028;28;20180;-74
2023/04/24 00:50:46;;;;;;;1.75;1.65;;;11.90;76.50;;;;;;5053737;28;20168;-74
2023/04/24 00:53:12;;;;;;;1.75;1.65;;;11.90;76.70;;;;;;5053612;28;20179;-73
2023/04/24 00:55:38;;;;;;;1.52;1.50;;;11.90;76.60;;;;;;5061279;28;20237;-73
2023/04/24 00:58:05;;;;;;;1.77;1.75;;;12.00;76.20;;;;;;5051389;28;21018;-73
2023/04/24 01:00:30;;;;;;;1.60;1.50;;;12.00;75.50;;;;;;5049081;28;20699;-74
2023/04/24 01:02:59;;;;;;;1.95;1.75;;;12.00;74.70;;;;;;5055103;28;20176;-73
2023/04/24 01:05:25;;;;;;;1.52;1.42;;;12.00;74.30;;;;;;5055970;28;20203;-72
2023/04/24 01:07:51;;;;;;;1.70;1.60;;;12.00;73.90;;;;;;5048467;28;20190;-73
2023/04/24 01:10:17;;;;;;;1.83;1.73;;;12.10;73.80;;;;;;5052798;28;20565;-73
2023/04/24 01:12:43;;;;;;;2.25;1.38;;;12.10;74.10;;;;;;5054489;28;20196;-73
2023/04/24 01:15:09;;;;;;;3.58;1.80;;;12.10;74.60;;;;;;5051200;28;20798;-73
2023/04/24 01:17:35;;;;;;;1.15;1.15;;;12.10;75.50;;;;;;5056509;28;20187;-73
2023/04/24 01:20:04;;;;;;;1.75;1.63;;;12.10;77.00;;;;;;5054159;28;20179;-75
2023/04/24 01:22:29;;;;;;;1.73;1.65;;;12.10;78.30;;;;;;5051513;28;20190;-74
2023/04/24 01:24:55;;;;;;;3.03;1.55;;;12.10;79.20;;;;;;5054604;28;20277;-74
2023/04/24 01:27:21;;;;;;;2.13;1.52;;;12.00;79.40;;;;;;5056048;28;20650;-73
2023/04/24 01:29:49;;;;;;;3.13;2.05;;;12.00;79.70;;;;;;5053617;28;20633;-74
2023/04/24 01:32:15;;;;;;;1.63;1.52;;;12.00;79.20;;;;;;5051664;28;20187;-74
2023/04/24 01:34:41;;;;;;;1.48;1.40;;;12.00;78.70;;;;;;5051738;28;20271;-74
2023/04/24 01:37:06;;;;;;;1.35;1.35;;;11.90;78.40;;;;;;5052613;28;20282;-73
2023/04/24 01:39:33;;;;;;;1.88;1.80;;;11.80;78.30;;;;;;5058260;28;20720;-74
2023/04/24 01:42:00;;;;;;;1.30;1.20;;;11.70;79.30;;;;;;5048599;28;20180;-74
2023/04/24 01:44:26;;;;;;;1.23;1.23;;;11.70;79.90;;;;;;5049755;28;20863;-73
2023/04/24 01:46:53;;;;;;;1.60;1.48;;;11.60;79.30;;;;;;5054329;28;20179;-74
2023/04/24 01:49:19;;;;;;;1.35;1.35;;;11.50;80.00;;;;;;5046564;28;20274;-73
2023/04/24 01:51:45;;;;;;;1.13;1.13;;;11.50;79.80;;;;;;5049631;28;20210;-73
2023/04/24 01:54:11;;;;;;;1.30;1.30;;;11.30;79.20;;;;;;5052717;28;20270;-73
2023/04/24 01:56:42;;;;;;;1.10;1.05;;;11.30;79.20;;;;;;5054564;28;20195;-74
2023/04/24 01:59:12;;;;;;;1.23;1.23;;;11.20;78.80;;;;;;5052782;28;20756;-74
2023/04/24 02:01:38;;;;;;;2.05;1.30;;;11.20;78.50;;;;;;5055806;28;20234;-74
2023/04/24 02:04:06;;;;;;;1.50;1.50;;;11.10;78.40;;;;;;5051624;28;20855;-75
2023/04/24 02:06:32;;;;;;;0.98;0.98;;;11.00;78.70;;;;;;5051488;28;20175;-72
2023/04/24 02:08:58;;;;;;;1.52;1.52;;;11.00;78.60;;;;;;5051942;28;20672;-73
2023/04/24 02:11:25;;;;;;;1.40;1.40;;;10.90;78.80;;;;;;5046778;28;20191;-73
2023/04/24 02:13:51;;;;;;;1.40;1.40;;;10.90;78.80;;;;;;5055317;28;20183;-73
2023/04/24 02:16:17;;;;;;;1.52;1.52;;;10.90;79.00;;;;;;5053562;28;20187;-73
2023/04/24 02:18:43;;;;;;;1.42;1.42;;;10.80;79.10;;;;;;5052770;28;20179;-73
2023/04/24 02:21:09;;;;;;;1.50;1.42;;;10.80;79.40;;;;;;5056136;28;20194;-73
2023/04/24 02:23:35;;;;;;;2.35;1.35;;;10.80;79.30;;;;;;5050752;28;20307;-73
2023/04/24 02:26:01;;;;;;;3.00;1.30;;;10.70;79.40;;;;;;5052220;28;20225;-74
2023/04/24 02:28:26;;;;;;;1.63;1.52;;;10.70;79.80;;;;;;5052714;28;20194;-74
2023/04/24 02:30:52;;;;;;;1.08;1.08;;;10.70;79.80;;;;;;5052372;28;20171;-73
2023/04/24 02:33:18;;;;;;;1.20;1.20;;;10.60;80.10;;;;;;5047289;28;22024;-73
2023/04/24 02:35:43;;;;;;;1.77;1.77;;;10.60;80.10;;;;;;5046759;28;20179;-73
2023/04/24 02:38:09;;;;;;;6.53;1.70;;;10.60;80.40;;;;;;5056167;28;20285;-73
2023/04/24 02:40:35;;;;;;;2.20;1.52;;;10.60;80.20;;;;;;5052033;28;20211;-73
2023/04/24 02:43:00;;;;;;;1.38;1.38;;;10.60;80.20;;;;;;5050306;28;20869;-74
2023/04/24 02:45:26;;;;;;;3.35;1.67;;;10.60;80.40;;;;;;5051417;28;20203;-73
2023/04/24 02:47:52;;;;;;;1.50;1.40;;;10.50;80.30;;;;;;5052257;28;20187;-73
2023/04/24 02:50:17;;;;;;;1.33;1.33;;;10.50;80.10;;;;;;5050317;28;20198;-74
2023/04/24 02:52:43;;;;;;;1.23;1.23;;;10.50;80.00;;;;;;5053394;28;20295;-73
2023/04/24 02:55:09;;;;;;;1.63;1.63;;;10.50;80.00;;;;;;5048317;28;20214;-73
2023/04/24 02:57:35;;;;;;;1.47;1.47;;;10.50;80.10;;;;;;5049772;28;20226;-74
2023/04/24 03:00:01;;;;;;;1.45;1.30;;;10.50;80.20;;;;;;5049641;28;20179;-73
2023/04/24 03:02:26;;;;;;;1.85;1.75;;;10.50;80.30;;;;;;5052964;28;20261;-72
2023/04/24 03:04:52;;;;;;;1.70;1.25;;;10.50;80.50;;;;;;5051925;28;20219;-73
2023/04/24 03:07:20;;;;;;;1.65;1.55;;;10.50;80.70;;;;;;5054785;28;20266;-74
2023/04/24 03:09:47;;;;;;;1.08;1.08;;;10.40;80.70;;;;;;5054376;28;20180;-74
2023/04/24 03:12:13;;;;;;;1.52;1.52;;;10.40;80.70;;;;;;5052094;28;20183;-73
2023/04/24 03:14:38;;;;;;;4.57;1.83;;;10.40;80.70;;;;;;5049100;28;20424;-73
2023/04/24 03:17:04;;;;;;;1.70;1.60;;;10.20;80.90;;;;;;5049051;28;20227;-73
2023/04/24 03:19:30;;;;;;;1.60;1.60;;;10.20;81.30;;;;;;5049695;28;20321;-74
2023/04/24 03:21:55;;;;;;;1.75;1.35;;;10.20;81.00;;;;;;5050962;28;20270;-74
2023/04/24 03:24:22;;;;;;;2.83;1.73;;;10.20;80.90;;;;;;5048372;28;20277;-74
2023/04/24 03:26:48;;;;;;;2.13;2.03;;;10.20;81.20;;;;;;5050019;28;20178;-74
2023/04/24 03:29:13;;;;;;;1.63;1.63;;;10.10;81.80;;;;;;5047770;28;20669;-73
2023/04/24 03:31:39;;;;;;;2.42;1.63;;;10.10;82.10;;;;;;5058693;28;20180;-74
2023/04/24 03:34:05;;;;;;;1.30;1.30;;;10.20;82.70;;;;;;5050708;28;20255;-73
2023/04/24 03:36:31;;;;;;;1.93;1.83;;;10.20;82.50;;;;;;5049818;28;20182;-73
2023/04/24 03:38:57;;;;;;;3.23;1.37;;;10.20;82.60;;;;;;5050194;28;20179;-73
2023/04/24 03:41:22;;;;;;;3.50;2.10;;;10.10;83.40;;;;;;5054551;28;20184;-73
2023/04/24 03:43:48;;;;;;;2.03;1.92;;;10.00;84.30;;;;;;5052637;28;20645;-74
2023/04/24 03:46:14;;;;;;;3.45;2.22;;;9.90;84.90;;;;;;5052453;28;20297;-73
2023/04/24 03:48:40;;;;;;;2.37;2.17;;;10.00;84.30;;;;;;5046988;28;20563;-74
2023/04/24 03:51:06;;;;;;;4.00;1.95;;;10.00;84.70;;;;;;5046087;28;20192;-73
2023/04/24 03:53:32;;;;;;;1.70;1.60;;;9.90;85.10;;;;;;5047118;28;20266;-73
2023/04/24 03:55:57;;;;;;;1.93;1.67;;;9.90;85.20;;;;;;5048357;28;20262;-74
2023/04/24 03:58:23;;;;;;;2.30;2.20;;;9.90;85.40;;;;;;5048729;28;20176;-73
2023/04/24 04:00:49;;;;;;;2.57;2.40;;;9.80;85.60;;;;;;5045236;28;20184;-74
2023/04/24 04:03:15;;;;;;;1.67;1.58;;;9.80;85.80;;;;;;5045236;28;20261;-75
2023/04/24 04:05:41;;;;;;;1.53;1.53;;;9.90;85.40;;;;;;5051108;28;20681;-74
2023/04/24 04:08:06;;;;;;;3.07;2.00;;;10.00;84.60;;;;;;5050458;28;20179;-74
2023/04/24 04:10:32;;;;;;;2.70;2.57;;;10.00;85.00;;;;;;5049963;28;20179;-73
2023/04/24 04:12:58;;;;;;;2.80;2.13;;;10.00;84.50;;;;;;5051209;28;20586;-74
2023/04/24 04:15:23;;;;;;;2.40;2.20;;;10.20;84.20;;;;;;5052398;28;20211;-72
2023/04/24 04:17:49;;;;;;;3.27;2.23;;;10.30;83.50;;;;;;5056506;28;20198;-73
2023/04/24 04:20:15;;;;;;;2.07;1.90;;;10.40;82.90;;;;;;5053649;28;20230;-73
2023/04/24 04:22:40;;;;;;;3.93;2.40;;;10.50;82.50;;;;;;5053696;28;20187;-73
2023/04/24 04:25:06;;;;;;;4.07;2.53;;;10.60;82.20;;;;;;5050976;28;20223;-73
2023/04/24 04:27:32;;;;;;;2.17;1.60;;;10.60;82.10;;;;;;5043603;28;20183;-73
2023/04/24 04:30:04;;;;;;;2.35;2.15;;;10.70;82.30;;;;;;5055843;28;20616;-74
2023/04/24 04:32:33;;;;;;;2.17;2.07;;;10.70;81.90;;;;;;5054879;28;20179;-74
2023/04/24 04:35:02;;;;;;;3.53;1.97;;;10.80;82.40;;;;;;5047781;28;20180;-72
2023/04/24 04:37:33;;;;;;;1.98;1.88;;;10.90;83.00;;;;;;5053547;28;20199;-72
2023/04/24 04:39:59;;;;;;;1.97;1.87;;;10.90;82.40;;;;;;5051157;28;20179;-72
2023/04/24 04:42:28;;;;;;;3.35;2.33;;;11.00;82.30;;;;;;5053110;28;20852;-72
2023/04/24 04:44:54;;;;;;;1.67;1.67;;;11.00;82.20;;;;;;5047350;28;20211;-72
2023/04/24 04:47:24;;;;;;;1.13;1.10;;;11.10;81.70;;;;;;5053592;28;20264;-72
2023/04/24 04:49:53;;;;;;;3.15;1.42;;;11.20;80.30;;;;;;5052563;28;20183;-71
2023/04/24 04:52:19;;;;;;;1.45;1.13;;;11.20;78.30;;;;;;5053609;28;20189;-71
2023/04/24 04:54:46;;;;;;;1.50;1.50;;;11.20;77.90;;;;;;5053971;28;20241;-71
2023/04/24 04:57:12;;;;;;;4.40;1.00;;;11.20;78.00;;;;;;5055871;28;20183;-71
2023/04/24 04:59:38;;;;;;;0.98;0.98;;;11.20;77.90;;;;;;5055790;28;20567;-69
2023/04/24 05:02:03;;;;;;;2.33;1.10;;;11.20;77.40;;;;;;5048550;28;20184;-71
2023/04/24 05:04:30;;;;;;;2.67;0.98;;;11.20;77.60;;;;;;5051676;28;20207;-72
2023/04/24 05:06:56;;;;;;;1.73;1.55;;;11.20;77.80;;;;;;5056779;28;20190;-72
2023/04/24 05:09:22;;;;;;;1.63;1.35;;;11.20;77.90;;;;;;5056399;28;20665;-71
2023/04/24 05:11:47;;;;;;;1.00;0.90;;;11.20;77.90;;;;;;5059088;28;20194;-72
2023/04/24 05:14:13;;;;;;;1.30;1.30;;;11.30;77.80;;;;;;5053653;28;20332;-71
2023/04/24 05:16:40;;;;;;;1.15;1.15;;;11.40;77.70;;;;;;5060914;28;20210;-71
2023/04/24 05:19:05;;;;;;;1.23;1.20;;;11.40;77.10;;;;;;5056109;28;20200;-71
2023/04/24 05:21:31;;;;;;;1.23;1.17;;;11.50;77.20;;;;;;5054123;28;20218;-72
2023/04/24 05:23:57;;;;;;;1.65;1.55;;;11.50;76.60;;;;;;5056943;28;20179;-72
2023/04/24 05:26:23;;;;;;;1.35;1.25;;;11.50;76.20;;;;;;5051590;28;20719;-72
2023/04/24 05:28:49;;;;;;;1.60;1.25;;;11.50;75.50;;;;;;5055485;28;20177;-72
2023/04/24 05:31:15;;;;;;;1.42;1.42;;;11.50;75.60;;;;;;5051448;28;20233;-72
2023/04/24 05:33:41;;;;;;;2.42;2.05;;;11.50;76.00;;;;;;5055583;28;20168;-71
2023/04/24 05:36:07;;;;;;;2.17;2.05;;;11.50;75.60;;;;;;5058529;28;20683;-72
2023/04/24 05:38:33;;;;;;;1.40;1.40;;;11.50;75.80;;;;;;5055226;28;20649;-72
2023/04/24 05:40:58;;;;;;;1.52;1.52;;;11.50;76.40;;;;;;5057303;28;20179;-71
2023/04/24 05:43:25;;;;;;;1.90;1.80;;;11.50;76.50;;;;;;5053752;28;20703;-71
2023/04/24 05:45:50;;;;;;;1.95;1.60;;;11.60;77.10;;;;;;5054456;28;20619;-72
2023/04/24 05:48:16;;;;;;;1.77;1.67;;;11.60;76.70;;;;;;5054936;28;20217;-71
2023/04/24 05:50:42;;;;;;;2.08;1.98;;;11.70;77.10;;;;;;5053455;28;20561;-72
2023/04/24 05:53:09;;;;;;;3.63;2.10;;;11.70;76.70;;;;;;5054777;28;20194;-72
2023/04/24 05:55:35;;;;;;;2.05;1.85;;;11.70;76.40;;;;;;5062066;28;20782;-72
2023/04/24 05:58:01;;;;;;;1.92;1.83;;;11.80;76.10;;;;;;5053983;28;20264;-72
2023/04/24 06:00:26;;;;;;;2.28;2.17;;;11.80;76.30;;;;;;5056908;28;20660;-72
2023/04/24 06:02:52;;;;;;;2.10;1.90;;;11.90;76.30;;;;;;5052277;28;20178;-72
2023/04/24 06:05:18;;;;;;;2.55;2.45;;;11.90;76.30;;;;;;5052545;28;20238;-72
2023/04/24 06:07:44;;;;;;;4.57;2.60;;;11.90;76.40;;;;;;5054092;28;20211;-72
2023/04/24 06:10:10;;;;;;;1.88;1.88;;;11.90;76.40;;;;;;5054055;28;20171;-72
2023/04/24 06:12:36;;;;;;;2.58;2.40;;;11.90;76.20;;;;;;5058043;28;20179;-72
2023/04/24 06:15:03;;;;;;;3.17;2.40;;;12.00;75.90;;;;;;5053148;28;20187;-72
2023/04/24 06:17:29;;;;;;;4.10;2.67;;;12.10;75.50;;;;;;5056786;28;20168;-72
2023/04/24 06:19:54;;;;;;;2.85;2.60;;;12.20;75.50;;;;;;5054785;28;20249;-72
2023/04/24 06:22:20;;;;;;;2.40;2.25;;;12.30;75.20;;;;;;5057541;28;20561;-71
2023/04/24 06:24:48;;;;;;;6.20;2.67;;;12.40;75.20;;;;;;5052109;28;20215;-72
2023/04/24 06:27:14;;;;;;;5.38;2.90;;;12.50;75.30;;;;;;5055109;28;20176;-72
2023/04/24 06:29:39;;;;;;;5.18;2.92;;;12.60;75.20;;;;;;5056683;28;20692;-70
2023/04/24 06:32:05;;;;;;;3.15;2.95;;;12.70;75.00;;;;;;5055941;28;20188;-70
2023/04/24 06:34:32;;;;;;;2.58;2.38;;;12.80;74.60;;;;;;5057677;28;20837;-73
2023/04/24 06:36:58;;;;;;;3.97;2.63;;;12.90;74.60;;;;;;5055898;28;20172;-72
2023/04/24 06:39:23;;;;;;;2.85;2.75;;;13.00;74.30;;;;;;5062237;28;20721;-72
2023/04/24 06:41:50;;;;;;;2.92;2.72;;;13.10;74.10;;;;;;5052015;28;20176;-73
2023/04/24 06:44:16;;;;;;;3.50;3.30;;;13.30;73.40;;;;;;5054435;28;20259;-71
2023/04/24 06:46:42;;;;;;;3.38;3.08;;;13.40;73.50;;;;;;5051840;28;20204;-73
2023/04/24 06:49:08;;;;;;;8.50;3.17;;;13.60;73.00;;;;;;5052346;28;20176;-72
2023/04/24 06:51:33;;;;;;;2.95;2.75;;;13.70;72.40;;;;;;5054986;28;20263;-71
2023/04/24 06:53:59;;;;;;;6.25;2.95;;;13.70;72.70;;;;;;5055500;28;20184;-71
2023/04/24 06:56:26;;;;;;;5.65;3.00;;;13.80;72.60;;;;;;5052030;28;20188;-71
2023/04/24 06:58:53;;;;;;;5.25;3.20;;;13.90;72.40;;;;;;5047466;28;20628;-73
2023/04/24 07:01:18;;;;;;;7.28;3.30;;;14.00;72.60;;;;;;5056498;28;20230;-72
2023/04/24 07:03:44;;;;;;;3.17;2.88;;;14.00;72.40;;;;;;5047058;28;20262;-73
2023/04/24 07:06:11;;;;;;;3.85;3.58;;;14.00;72.70;;;;;;5048277;28;20272;-72
2023/04/24 07:08:37;;;;;;;3.65;3.35;;;14.10;72.00;;;;;;5056598;28;20309;-73
2023/04/24 07:11:02;;;;;;;4.53;2.97;;;14.10;71.40;;;;;;5050829;28;20287;-72
2023/04/24 07:13:28;;;;;;;3.38;3.17;;;14.10;71.70;;;;;;5052673;28;20240;-72
2023/04/24 07:15:54;;;;;;;10.65;3.53;;;14.10;71.80;;;;;;5050209;28;20179;-73
2023/04/24 07:18:23;;;;;;;2.90;2.60;;;14.10;71.60;;;;;;5051334;28;20240;-74
2023/04/24 07:20:52;;;;;;;3.67;3.17;;;14.20;71.80;;;;;;5047576;28;20188;-73
2023/04/24 07:23:19;;;;;;;3.53;3.22;;;14.20;72.00;;;;;;5051558;28;20217;-73
2023/04/24 07:25:44;;;;;;;2.92;2.72;;;14.30;71.90;;;;;;5053146;28;20239;-73
2023/04/24 07:28:10;;;;;;;2.72;2.63;;;14.40;71.60;;;;;;5045686;28;20642;-75
2023/04/24 07:30:36;;;;;;;2.85;2.75;;;14.40;71.40;;;;;;5051080;28;20204;-75
2023/04/24 07:33:01;;;;;;;3.00;2.80;;;14.50;71.30;;;;;;5048026;28;20182;-72
2023/04/24 07:35:27;;;;;;;2.80;2.65;;;14.60;71.20;;;;;;5050613;28;20178;-73
2023/04/24 07:37:53;;;;;;;2.88;2.78;;;14.60;71.50;;;;;;5049885;28;20645;-72
2023/04/24 07:40:20;;;;;;;3.03;2.83;;;14.60;71.40;;;;;;5045931;28;20179;-72
2023/04/24 07:42:48;;;;;;;4.28;2.88;;;14.70;70.80;;;;;;5051497;28;20190;-73
2023/04/24 07:45:14;;;;;;;3.30;3.03;;;14.80;71.00;;;;;;5053264;28;20339;-74
2023/04/24 07:47:43;;;;;;;2.45;2.35;;;14.80;71.00;;;;;;5044129;28;20237;-73
2023/04/24 07:50:09;;;;;;;3.70;2.35;;;14.90;70.30;;;;;;5050188;28;20182;-73
2023/04/24 07:52:35;;;;;;;2.65;2.45;;;14.90;70.30;;;;;;5054912;28;20342;-73
2023/04/24 07:55:02;;;;;;;2.47;2.25;;;15.00;70.30;;;;;;5056341;28;20278;-73
2023/04/24 07:57:27;;;;;;;3.08;2.50;;;15.10;70.50;;;;;;5049287;28;20254;-73
2023/04/24 07:59:53;;;;;;;5.28;2.33;;;15.10;70.10;;;;;;5056476;28;20699;-73
2023/04/24 08:02:19;;;;;;;2.30;2.20;;;15.20;69.90;;;;;;5050820;28;20242;-73
2023/04/24 08:04:45;;;;;;;2.28;2.22;;;15.20;69.40;;;;;;5058132;28;20598;-73
2023/04/24 08:07:12;;;;;;;5.10;2.63;;;15.30;69.70;;;;;;5055223;28;20185;-73
2023/04/24 08:09:38;;;;;;;2.83;2.65;;;15.30;69.90;;;;;;5057485;28;20176;-72
2023/04/24 08:12:04;;;;;;;2.30;2.20;;;15.50;69.80;;;;;;5055046;28;20265;-73
2023/04/24 08:14:30;;;;;;;2.22;2.13;;;15.60;69.60;;;;;;5047826;28;20211;-72
2023/04/24 08:16:56;;;;;;;3.67;2.08;;;15.70;69.20;;;;;;5055587;28;20179;-73
2023/04/24 08:19:22;;;;;;;5.85;2.60;;;15.90;69.20;;;;;;5052690;28;20669;-73
2023/04/24 08:21:48;;;;;;;2.25;2.15;;;16.00;69.70;;;;;;5047480;28;20191;-73
2023/04/24 08:24:13;;;;;;;2.72;2.55;;;16.20;69.20;;;;;;5049563;28;20176;-73
2023/04/24 08:26:39;;;;;;;2.90;2.70;;;16.30;68.60;;;;;;5050327;28;20266;-73
2023/04/24 08:29:06;;;;;;;2.58;2.47;;;16.50;68.30;;;;;;5048365;28;20245;-73
2023/04/24 08:31:32;;;;;;;2.50;2.40;;;16.70;68.30;;;;;;5052467;28;20254;-73
2023/04/24 08:33:59;;;;;;;4.07;2.88;;;16.90;68.30;;;;;;5049135;28;20183;-73
2023/04/24 08:36:25;;;;;;;4.07;2.90;;;17.10;68.00;;;;;;5065488;28;20690;-74
2023/04/24 08:38:51;;;;;;;2.90;2.72;;;17.30;66.90;;;;;;5049687;28;20214;-74
2023/04/24 08:41:18;;;;;;;2.88;2.67;;;17.50;66.70;;;;;;5052043;28;20211;-74
2023/04/24 08:43:46;;;;;;;3.38;2.70;;;17.50;65.30;;;;;;5053561;28;20175;-74
2023/04/24 08:46:13;;;;;;;3.60;2.35;;;17.60;65.90;;;;;;5054693;28;20218;-73
2023/04/24 08:48:40;;;;;;;2.97;2.42;;;17.80;66.00;;;;;;5054932;28;20265;-74
2023/04/24 08:51:08;;;;;;;2.83;2.25;;;17.90;66.00;;;;;;5053522;28;20233;-73
2023/04/24 08:53:35;;;;;;;2.92;2.78;;;18.10;65.50;;;;;;5049384;28;20231;-74
2023/04/24 08:56:02;;;;;;;2.90;2.70;;;18.20;65.20;;;;;;5049589;28;20599;-74
2023/04/24 08:58:28;;;;;;;2.58;2.47;;;18.40;65.10;;;;;;5049374;28;20207;-74
2023/04/24 09:00:58;;;;;;;2.65;2.55;;;18.60;64.10;;;;;;5053370;28;20172;-73
2023/04/24 09:03:24;;;;;;;2.13;2.03;;;18.80;63.30;;;;;;5052570;28;20734;-74
2023/04/24 09:05:50;;;;;;;2.65;2.53;;;19.00;63.40;;;;;;5054508;28;20645;-74
2023/04/24 09:08:20;;;;;;;2.55;2.45;;;19.20;64.30;;;;;;5056763;28;20191;-74
2023/04/24 09:10:46;;;;;;;2.80;2.70;;;19.50;62.50;;;;;;5055132;28;20194;-74
2023/04/24 09:13:12;;;;;;;3.22;2.92;;;19.70;62.10;;;;;;5051742;28;20186;-74
2023/04/24 09:15:39;;;;;;;4.47;2.80;;;19.70;61.30;;;;;;5054960;28;20202;-74
2023/04/24 09:18:05;;;;;;;3.38;3.08;;;19.90;62.30;;;;;;5052254;28;20183;-74
2023/04/24 09:20:31;;;;;;;2.97;2.50;;;20.30;61.70;;;;;;5054882;28;20183;-74
2023/04/24 09:22:58;;;;;;;3.05;2.47;;;20.60;60.90;;;;;;5052305;28;20660;-73
2023/04/24 09:25:35;;;;;;;2.03;2.03;;;20.90;60.10;;;;;;5053830;28;20214;-74
2023/04/24 09:28:03;;;;;;;3.17;2.28;;;21.20;59.00;;;;;;5054336;28;20206;-74
2023/04/24 09:30:29;;;;;;;2.25;2.20;;;21.70;59.00;;;;;;5052329;28;20651;-74
2023/04/24 09:33:15;;;;;;;3.05;2.67;;;22.40;57.80;;;;;;5055402;28;20202;-74
2023/04/24 09:35:51;;;;;;;3.60;2.22;;;22.90;56.70;;;;;;5054141;28;20232;-75
2023/04/24 09:38:17;;;;;;;4.40;2.28;;;23.60;56.10;;;;;;5052538;28;20183;-75
2023/04/24 09:40:43;;;;;;;2.53;2.22;;;24.10;54.80;;;;;;5048471;28;20186;-74
2023/04/24 09:43:12;;;;;;;2.10;1.90;;;24.70;53.30;;;;;;5053171;28;20258;-74
2023/04/24 09:45:39;;;;;;;2.55;2.35;;;25.20;51.60;;;;;;5051979;28;20672;-74
2023/04/24 09:48:08;;;;;;;2.00;2.00;;;25.20;51.00;;;;;;5053201;28;20241;-75
2023/04/24 09:50:34;;;;;;;2.67;2.28;;;25.10;50.80;;;;;;5054689;28;20211;-74
2023/04/24 09:53:05;;;;;;;2.67;2.53;;;25.20;51.00;;;;;;5056318;28;20267;-75
2023/04/24 09:55:31;;;;;;;3.70;2.28;;;25.60;52.30;;;;;;5051963;28;20240;-75
2023/04/24 09:58:01;;;;;;;2.50;2.40;;;25.90;50.90;;;;;;5055151;28;20258;-74
2023/04/24 10:00:32;;;;;;;6.30;2.47;;;25.90;49.40;;;;;;5053239;28;20176;-74
2023/04/24 10:03:03;;;;;;;4.13;2.20;;;25.70;50.00;;;;;;5054547;28;20634;-74
2023/04/24 10:05:36;;;;;;;2.38;2.17;;;26.00;50.20;;;;;;5053891;28;20643;-73
2023/04/24 10:08:06;;;;;;;2.60;2.10;;;26.80;50.00;;;;;;5054316;28;20236;-73
2023/04/24 10:10:33;;;;;;;2.58;2.38;;;27.90;48.30;;;;;;5054278;28;20175;-73
2023/04/24 10:13:00;;;;;;;1.98;1.90;;;28.80;47.50;;;;;;5052655;28;20192;-75
2023/04/24 10:15:26;;;;;;;2.13;1.92;;;29.30;47.10;;;;;;5049864;28;20214;-75
2023/04/24 10:17:53;;;;;;;2.42;2.33;;;29.50;46.10;;;;;;5051057;28;20179;-72
2023/04/24 10:20:24;;;;;;;2.08;1.83;;;29.70;46.10;;;;;;5052441;28;20245;-74
2023/04/24 10:22:51;;;;;;;1.63;1.63;;;30.20;45.70;;;;;;5041557;28;20179;-75
2023/04/24 10:25:19;;;;;;;2.42;2.22;;;31.00;45.40;;;;;;5051708;28;20203;-73
2023/04/24 10:27:46;;;;;;;2.38;2.28;;;31.70;44.90;;;;;;5047452;28;20852;-73
2023/04/24 10:30:13;;;;;;;2.25;2.15;;;32.30;43.10;;;;;;5051573;28;20644;-73
2023/04/24 10:32:39;;;;;;;2.20;2.20;;;32.90;42.30;;;;;;5051371;28;20183;-73
2023/04/24 10:35:07;;;;;;;2.30;2.30;;;33.50;42.00;;;;;;5049166;28;20195;-72
2023/04/24 10:37:45;;;;;;;4.10;1.90;;;33.90;41.60;;;;;;5047722;28;20183;-73
2023/04/24 10:40:15;;;;;;;2.05;1.95;;;34.20;41.30;;;;;;5044870;28;20266;-74
2023/04/24 10:42:44;;;;;;;2.38;2.17;;;34.10;40.60;;;;;;5053703;28;20586;-73
2023/04/24 10:45:18;;;;;;;2.55;2.28;;;33.70;41.50;;;;;;5044609;28;20215;-74
2023/04/24 10:48:10;;;;;;;1.98;1.88;;;32.70;43.00;;;;;;5052230;28;20175;-74
2023/04/24 10:50:53;;;;;;;2.25;2.15;;;31.90;43.10;;;;;;5049660;28;20244;-74
2023/04/24 10:53:22;;;;;;;1.92;1.92;;;31.40;43.70;;;;;;5044918;28;20198;-74
2023/04/24 10:55:58;;;;;;;2.10;2.00;;;31.20;44.80;;;;;;5046609;28;20206;-74
2023/04/24 10:58:35;;;;;;;2.10;2.00;;;31.00;45.60;;;;;;5052687;28;20190;-75
2023/04/24 11:01:00;;;;;;;2.13;2.03;;;30.60;43.90;;;;;;5053579;28;20209;-74
2023/04/24 11:03:32;;;;;;;2.20;2.20;;;29.90;44.80;;;;;;5052501;28;20179;-75
2023/04/24 11:06:05;;;;;;;2.22;2.10;;;29.40;45.50;;;;;;5049576;28;20198;-74
2023/04/24 11:08:48;;;;;;;3.00;2.10;;;28.70;45.80;;;;;;5053007;28;20186;-74
2023/04/24 11:11:16;;;;;;;4.45;2.03;;;27.10;46.90;;;;;;5050970;28;20205;-74
2023/04/24 11:13:54;;;;;;;2.35;2.22;;;26.20;48.30;;;;;;5051357;28;20175;-74
2023/04/24 11:16:23;;;;;;;2.38;2.17;;;25.20;50.10;;;;;;5052369;28;20195;-74
2023/04/24 11:18:59;;;;;;;2.00;2.00;;;24.90;51.40;;;;;;5050860;28;20721;-75
2023/04/24 11:21:31;;;;;;;3.00;2.60;;;24.60;51.10;;;;;;5051456;28;20602;-72
2023/04/24 11:23:57;;;;;;;2.38;1.55;;;23.70;51.70;;;;;;5052912;28;20176;-72
2023/04/24 11:26:30;;;;;;;1.45;1.45;;;22.30;54.30;;;;;;5051185;28;20708;-73
2023/04/24 11:29:09;;;;;;;1.70;1.70;;;20.50;60.30;;;;;;5051144;28;20190;-73
2023/04/24 11:31:36;;;;;;;1.23;1.23;;;19.60;64.30;;;;;;5051769;28;20223;-73
2023/04/24 11:34:07;;;;;;;1.10;1.10;;;19.20;64.60;;;;;;5052411;28;20246;-75
2023/04/24 11:36:35;;;;;;;1.45;1.35;;;19.60;64.20;;;;;;5052718;28;20191;-74
2023/04/24 11:39:01;;;;;;;1.67;1.58;;;20.00;62.50;;;;;;5051666;28;20183;-74
2023/04/24 11:41:28;;;;;;;1.30;1.13;;;19.90;63.10;;;;;;5051130;28;20186;-72
2023/04/24 11:43:55;;;;;;;1.17;1.17;;;19.50;63.50;;;;;;5049890;28;20188;-72
2023/04/24 11:46:21;;;;;;;1.25;1.25;;;19.50;63.30;;;;;;5051003;28;20250;-72
2023/04/24 11:48:47;;;;;;;1.15;1.15;;;19.20;63.40;;;;;;5051716;28;20597;-73
2023/04/24 11:51:14;;;;;;;1.55;1.45;;;19.20;64.00;;;;;;5052779;28;20579;-73
2023/04/24 11:53:40;;;;;;;1.15;1.15;;;19.20;63.70;;;;;;5048634;28;20187;-75
2023/04/24 11:56:09;;;;;;;1.25;1.25;;;19.70;63.10;;;;;;5051869;28;20210;-72
2023/04/24 11:58:39;;;;;;;1.42;1.40;;;20.20;62.10;;;;;;5050396;28;20187;-72
2023/04/24 12:01:05;;;;;;;1.27;1.27;;;20.60;61.70;;;;;;5046457;28;20171;-72
2023/04/24 12:03:31;;;;;;;1.27;1.27;;;21.00;61.00;;;;;;5052811;28;20189;-72
2023/04/24 12:06:10;;;;;;;4.85;1.60;;;21.60;59.30;;;;;;5051853;28;20202;-72
2023/04/24 12:08:36;;;;;;;2.05;2.05;;;21.80;59.00;;;;;;5038948;28;20860;-72
2023/04/24 12:11:04;;;;;;;1.42;1.42;;;22.30;58.40;;;;;;5048438;28;20237;-71
2023/04/24 12:13:30;;;;;;;1.67;1.58;;;22.30;56.70;;;;;;5047868;28;20172;-73
2023/04/24 12:16:01;;;;;;;1.20;1.20;;;22.40;56.60;;;;;;5047324;28;20184;-73
2023/04/24 12:18:26;;;;;;;1.48;1.35;;;22.60;56.70;;;;;;5045580;28;20652;-73
2023/04/24 12:20:52;;;;;;;5.32;1.55;;;22.80;55.60;;;;;;5049356;28;20183;-73
2023/04/24 12:23:35;;;;;;;1.33;1.33;;;22.80;56.50;;;;;;5049977;28;20898;-73
2023/04/24 12:26:04;;;;;;;1.52;1.52;;;22.60;56.10;;;;;;5053995;28;20199;-74
2023/04/24 12:28:38;;;;;;;2.28;1.70;;;22.60;55.70;;;;;;5051327;28;20569;-74
2023/04/24 12:31:04;;;;;;;1.45;1.45;;;22.80;54.90;;;;;;5053640;28;20175;-73
2023/04/24 12:33:34;;;;;;;1.05;1.05;;;22.80;55.50;;;;;;5047875;28;20168;-72
2023/04/24 12:36:00;;;;;;;1.63;1.48;;;23.00;55.00;;;;;;5051526;28;20184;-73
2023/04/24 12:38:29;;;;;;;1.33;1.33;;;23.40;55.30;;;;;;5055569;28;20214;-73
2023/04/24 12:41:08;;;;;;;1.50;1.50;;;23.70;54.10;;;;;;5055499;28;20183;-72
2023/04/24 12:43:34;;;;;;;1.55;1.55;;;23.80;54.00;;;;;;5055573;28;20204;-72
2023/04/24 12:46:00;;;;;;;1.42;1.42;;;23.60;53.60;;;;;;5055568;28;20203;-70
2023/04/24 12:48:27;;;;;;;1.13;1.13;;;23.40;54.60;;;;;;5053350;28;20633;-73